Alabama Hills, California
Current Conditions -  °F | °C
As of 8:56 PM on Thursday 27 Nov 2014 (Local Time) from KBIH Reporting Station
Clear Clear  
Wind Chill: 30°   Ceiling: Unl
Heat Index: 35°   Visibility: 10mi
Dew Point: 14°   Wind: 6mph
Humidity: 42%   Direction: 340°NNW
Pressure: 30.2"   Gusts: NA
Location:  36.6126°N, 118.162°W
Report Text: KBIH 280456Z AUTO 34005KT 10SM CLR 02/M10 A3020 RMK AO2 SLP223 T00171100
Loading
Personal Weather Stations






























Interactive Weather Map New forecast layout! Learn more

10-Day Weather Forecast

Advertisements
Track Severe Weather on mobile